Stevensville, Montana
Current Conditions -  °F | °C
As of 3:53 AM on Monday 22 Dec 2014 (Local Time) from KMSO Reporting Station
Overcast Overcast  
Wind Chill: 32°   Ceiling: 5500
Heat Index: 36°   Visibility: 10mi
Dew Point: 29°   Wind: 5mph
Humidity: 76%   Direction: 300°WNW
Pressure: 29.93"   Gusts: NA
Location:  46.51°N, 114.09°W
Report Text: KMSO 221053Z AUTO 30004KT 10SM FEW043 OVC055 02/M02 A2993 RMK AO2 SLP155 T00221017 $
Loading
Personal Weather Stations






























Interactive Weather Map New forecast layout! Learn more

10-Day Weather Forecast

Advertisements
Track Severe Weather on mobile